createdAt,value
2019-04-11T00:01:53.548Z,56137.52
2019-04-11T00:04:24.244Z,56147.80
2019-04-11T00:06:54.452Z,56123.12
2019-04-11T00:09:24.841Z,56170.42
2019-04-11T00:11:54.822Z,56132.38
2019-04-11T00:14:24.727Z,56143.69
2019-04-11T00:16:55.409Z,56141.63
2019-04-11T00:19:25.633Z,56134.43
2019-04-11T00:21:55.753Z,56121.07
2019-04-11T00:24:25.594Z,56140.61
2019-04-11T00:26:55.505Z,56135.46
2019-04-11T00:29:26.087Z,56147.80
2019-04-11T00:31:56.945Z,56157.05
2019-04-11T00:34:27.335Z,56173.51
2019-04-11T00:36:57.231Z,56162.20
2019-04-11T00:39:27.851Z,56141.63
2019-04-11T00:41:58.622Z,56135.46
2019-04-11T00:44:28.603Z,56168.37
2019-04-11T00:46:58.564Z,56159.11
2019-04-11T00:49:28.522Z,56133.41
2019-04-11T00:51:58.376Z,56143.69
2019-04-11T00:54:29.017Z,56135.46
2019-04-11T00:56:59.437Z,56155.00
2019-04-11T00:59:30.084Z,56129.29
2019-04-11T01:02:00.954Z,56179.68
2019-04-11T01:04:31.038Z,56152.94
2019-04-11T01:07:02.659Z,56158.09
2019-04-11T01:09:34.727Z,56179.68
2019-04-11T01:12:05.410Z,56170.42
2019-04-11T01:14:37.224Z,56163.23
2019-04-11T01:17:07.857Z,56105.64
2019-04-11T01:19:38.711Z,56074.80
2019-04-11T01:22:09.707Z,56134.43
2019-04-11T01:24:40.048Z,56170.42
2019-04-11T01:27:10.238Z,56136.49
2019-04-11T01:29:40.308Z,56149.86
2019-04-11T01:32:11.222Z,56174.54
2019-04-11T01:34:42.511Z,56192.02
2019-04-11T01:37:12.805Z,56176.59
2019-04-11T01:40:11.803Z,56140.61
2019-04-11T01:42:41.919Z,56143.69
2019-04-11T01:45:13.572Z,56130.32
2019-04-11T01:47:49.719Z,56167.34
2019-04-11T01:50:23.354Z,56178.65
2019-04-11T01:52:53.249Z,56158.09
2019-04-11T01:55:24.110Z,56160.14
2019-04-11T01:57:54.133Z,56151.91
2019-04-11T02:00:42.047Z,56151.91
2019-04-11T02:03:14.954Z,56166.31
2019-04-11T02:05:45.419Z,56180.71
2019-04-11T02:08:15.404Z,56153.97
2019-04-11T02:10:45.381Z,56137.52
2019-04-11T02:13:15.614Z,56160.14
2019-04-11T02:15:46.292Z,56165.28
2019-04-11T02:18:16.157Z,56184.82
2019-04-11T02:20:47.251Z,56170.42
2019-04-11T02:23:23.377Z,56151.91
2019-04-11T02:26:07.166Z,56141.63
2019-04-11T02:28:37.394Z,56153.97
2019-04-11T02:31:09.694Z,56176.59
2019-04-11T02:33:39.052Z,56139.57
2019-04-11T02:36:10.034Z,56185.85
2019-04-11T02:38:41.251Z,56189.96
2019-04-11T02:41:12.484Z,56168.37
2019-04-11T02:43:44.482Z,56144.71
2019-04-11T02:46:24.587Z,56190.99
2019-04-11T02:48:46.662Z,56156.03
2019-04-11T02:51:18.207Z,56183.79
2019-04-11T02:53:49.551Z,56164.25
2019-04-11T02:56:21.326Z,56145.75
2019-04-11T02:58:52.279Z,56147.80
2019-04-11T03:01:24.114Z,56129.29
2019-04-11T03:03:54.599Z,56158.09
2019-04-11T03:06:27.922Z,56135.46
2019-04-11T03:08:59.344Z,56159.11
2019-04-11T03:11:30.381Z,56140.61
2019-04-11T03:14:03.833Z,56141.63
2019-04-11T03:16:46.482Z,56137.52
2019-04-11T03:19:24.074Z,56149.86
2019-04-11T03:21:41.169Z,56131.35
2019-04-11T03:24:10.894Z,56151.91
2019-04-11T03:26:43.392Z,56185.85
2019-04-11T03:29:13.461Z,56148.83
2019-04-11T03:32:17.666Z,56169.39
2019-04-11T03:37:19.476Z,56127.23
2019-04-11T03:39:39.489Z,56143.69
2019-04-11T03:42:07.615Z,56178.65
2019-04-11T03:44:30.657Z,56122.09
2019-04-11T03:47:13.967Z,56151.91
2019-04-11T03:49:35.433Z,56142.66
2019-04-11T03:51:59.279Z,56163.23
2019-04-11T03:54:29.513Z,56176.59
2019-04-11T03:57:00.918Z,56168.37
2019-04-11T03:59:33.560Z,56150.89
2019-04-11T04:02:03.565Z,56166.31
2019-04-11T04:04:35.370Z,56165.28
2019-04-11T04:07:08.783Z,56193.05
2019-04-11T04:09:39.750Z,56128.27
2019-04-11T04:12:11.462Z,56159.11
2019-04-11T04:15:32.553Z,56165.28
2019-04-11T04:17:57.298Z,56164.25
2019-04-11T04:20:40.134Z,56158.09
2019-04-11T04:23:14.667Z,56130.32
2019-04-11T04:25:46.780Z,56159.11
2019-04-11T04:28:16.483Z,56185.85
2019-04-11T04:30:46.967Z,56183.79
2019-04-11T04:33:19.322Z,56170.42
2019-04-11T04:35:49.787Z,56155.00
2019-04-11T04:38:21.110Z,56127.23
2019-04-11T04:41:08.830Z,56160.14
2019-04-11T04:43:25.172Z,56148.83
2019-04-11T04:46:13.588Z,56176.59
2019-04-11T04:48:29.366Z,56113.87
2019-04-11T04:51:03.350Z,56185.85
2019-04-11T04:53:30.991Z,56176.59
2019-04-11T04:56:02.646Z,56153.97
2019-04-11T04:58:33.943Z,56133.41
2019-04-11T05:01:06.806Z,56132.38
2019-04-11T05:03:37.775Z,56178.65
2019-04-11T05:06:07.823Z,56162.20
2019-04-11T05:08:39.044Z,56141.63
2019-04-11T05:11:08.968Z,56164.25
2019-04-11T05:13:40.865Z,56152.94
2019-04-11T05:16:17.155Z,56156.03
2019-04-11T05:18:42.441Z,56143.69
2019-04-11T05:21:12.885Z,56189.96
2019-04-11T05:23:42.931Z,56180.71
2019-04-11T05:26:13.148Z,56107.70
2019-04-11T05:28:43.665Z,56170.42
2019-04-11T05:31:14.384Z,56147.80
2019-04-11T05:33:45.554Z,56160.14
2019-04-11T05:36:16.548Z,56165.28
2019-04-11T05:38:46.651Z,56147.80
2019-04-11T05:41:17.453Z,56151.91
2019-04-11T05:43:49.394Z,56156.03
2019-04-11T05:47:09.002Z,56168.37
2019-04-11T05:49:50.632Z,56178.65
2019-04-11T05:56:25.719Z,56156.03
2019-04-11T05:58:57.795Z,56149.86
2019-04-11T06:05:24.530Z,56117.98
2019-04-11T06:07:58.065Z,56149.86
2019-04-11T06:10:46.934Z,56157.05
2019-04-11T06:13:36.438Z,56133.41
2019-04-11T06:16:08.266Z,56159.11
2019-04-11T06:18:52.207Z,56140.61
2019-04-11T06:21:28.294Z,56114.90
2019-04-11T06:24:20.933Z,56156.03
2019-04-11T06:27:04.039Z,56165.28
2019-04-11T06:29:56.065Z,56132.38
2019-04-11T06:32:38.431Z,56131.35
2019-04-11T06:35:13.991Z,56137.52
2019-04-11T06:38:16.410Z,56147.80
2019-04-11T06:40:57.815Z,56144.71
2019-04-11T06:43:50.099Z,56147.80
2019-04-11T06:46:52.385Z,56148.83
2019-04-11T06:49:24.923Z,56128.27
2019-04-11T06:51:58.016Z,56121.07
2019-04-11T06:54:47.392Z,56132.38
2019-04-11T06:57:21.617Z,56113.87
2019-04-11T06:59:52.574Z,56133.41
2019-04-11T07:02:25.034Z,56142.66
2019-04-11T07:05:02.523Z,56115.93
2019-04-11T07:07:35.627Z,56129.29
2019-04-11T07:10:07.941Z,56092.28
2019-04-11T07:13:00.909Z,56109.76
2019-04-11T07:15:35.508Z,56115.93
2019-04-11T07:18:24.813Z,56075.82
2019-04-11T07:20:58.581Z,56084.05
2019-04-11T07:23:49.014Z,56078.91
2019-04-11T07:26:45.741Z,56097.42
2019-04-11T07:29:37.911Z,56110.79
2019-04-11T07:32:13.654Z,56124.15
2019-04-11T07:35:12.863Z,56078.91
2019-04-11T07:37:49.175Z,56094.33
2019-04-11T07:40:39.201Z,56109.76
2019-04-11T07:43:41.270Z,56100.50
2019-04-11T07:46:22.742Z,56115.93
2019-04-11T07:49:06.363Z,56092.28
2019-04-11T07:51:55.792Z,56104.62
2019-04-11T07:54:28.091Z,56099.47
2019-04-11T07:57:04.110Z,56096.39
2019-04-11T08:00:00.324Z,56089.19
2019-04-11T08:02:48.263Z,56086.11
2019-04-11T08:05:36.685Z,56110.79
2019-04-11T08:08:25.735Z,56095.36
2019-04-11T08:11:03.758Z,56084.05
2019-04-11T08:13:47.451Z,56116.95
2019-04-11T08:16:35.218Z,56087.14
2019-04-11T08:19:24.842Z,56056.29
2019-04-11T08:22:00.888Z,56117.98
2019-04-11T08:24:40.597Z,56067.60
2019-04-11T08:27:49.801Z,56117.98
2019-04-11T08:30:10.754Z,56077.88
2019-04-11T08:32:46.508Z,56069.65
2019-04-11T08:35:34.871Z,56073.77
2019-04-11T08:38:08.026Z,56042.92
2019-04-11T08:40:53.331Z,56056.29
2019-04-11T08:43:26.967Z,56070.68
2019-04-11T08:46:01.089Z,56025.44
2019-04-11T08:48:35.169Z,56028.52
2019-04-11T08:51:08.665Z,56049.09
2019-04-11T08:53:53.242Z,56071.71
2019-04-11T08:56:23.529Z,56041.89
2019-04-11T08:59:29.889Z,56062.46
2019-04-11T09:02:02.506Z,56027.50
2019-04-11T09:05:03.253Z,56024.41
2019-04-11T09:07:29.694Z,56020.30
2019-04-11T09:10:22.404Z,56015.16
2019-04-11T09:13:00.564Z,56003.85
2019-04-11T09:15:50.656Z,56015.16
2019-04-11T09:18:21.848Z,56018.24
2019-04-11T09:21:10.085Z,56021.33
2019-04-11T09:23:41.869Z,56014.13
2019-04-11T09:26:20.286Z,56000.76
2019-04-11T09:28:53.565Z,56028.52
2019-04-11T09:31:43.953Z,56047.03
2019-04-11T09:34:33.609Z,56041.89
2019-04-11T09:37:29.603Z,56022.36
2019-04-11T09:40:12.876Z,56024.41
2019-04-11T09:42:53.484Z,56017.21
2019-04-11T09:45:52.649Z,56018.24
2019-04-11T09:48:31.538Z,56005.90
2019-04-11T09:51:40.281Z,55993.57
2019-04-11T09:54:26.107Z,55986.37
2019-04-11T09:57:18.541Z,56001.79
2019-04-11T10:00:08.203Z,55911.31
2019-04-11T10:02:48.849Z,55946.27
2019-04-11T10:05:22.418Z,55929.82
2019-04-11T10:08:04.987Z,55938.04
2019-04-11T10:10:54.459Z,55952.44
2019-04-11T10:13:47.365Z,56024.41
2019-04-11T10:16:35.900Z,56051.14
2019-04-11T10:19:11.971Z,56049.09
2019-04-11T10:21:46.040Z,56082.00
2019-04-11T10:24:22.428Z,56068.62
2019-04-11T10:27:00.542Z,56072.74
2019-04-11T10:29:49.047Z,56055.26
2019-04-11T10:32:23.239Z,56056.29
2019-04-11T10:35:05.983Z,56062.46
2019-04-11T10:37:37.968Z,56033.67
2019-04-11T10:40:32.553Z,56061.43
2019-04-11T10:43:02.588Z,56087.14
2019-04-11T10:45:53.104Z,56058.34
2019-04-11T10:48:34.523Z,56064.51
2019-04-11T10:51:18.356Z,56073.77
2019-04-11T10:53:51.239Z,56047.03
2019-04-11T10:56:41.174Z,56032.64
2019-04-11T10:59:13.363Z,56100.50
2019-04-11T11:02:01.968Z,56060.40
2019-04-11T11:04:45.175Z,56042.92
2019-04-11T11:07:18.857Z,56028.52
2019-04-11T11:10:03.203Z,56069.65
2019-04-11T11:12:53.785Z,56037.78
2019-04-11T11:15:27.517Z,56047.03
2019-04-11T11:18:41.152Z,56005.90
2019-04-11T11:20:53.985Z,56035.72
2019-04-11T11:23:52.780Z,56036.75
2019-04-11T11:26:27.672Z,56038.81
2019-04-11T11:29:17.486Z,56063.48
2019-04-11T11:32:00.867Z,56054.23
2019-04-11T11:34:38.948Z,56044.98
2019-04-11T11:37:27.246Z,56032.64
2019-04-11T11:40:16.596Z,56029.55
2019-04-11T11:43:04.005Z,56055.26
2019-04-11T11:45:56.384Z,56059.37
2019-04-11T11:48:35.593Z,56063.48
2019-04-11T11:51:13.495Z,56044.98
2019-04-11T11:53:59.382Z,56029.55
2019-04-11T11:56:29.982Z,56065.54
2019-04-11T11:59:11.164Z,56063.48
2019-04-11T12:01:49.757Z,56020.30
2019-04-11T12:04:37.817Z,56079.94
2019-04-11T12:07:09.994Z,56086.11
2019-04-11T12:10:02.825Z,56028.52
2019-04-11T12:12:42.466Z,56055.26
2019-04-11T12:15:41.466Z,56026.47
2019-04-11T12:18:26.761Z,56032.64
2019-04-11T12:21:01.022Z,56017.21
2019-04-11T12:23:55.577Z,56005.90
2019-04-11T12:26:16.784Z,56052.18
2019-04-11T12:29:22.021Z,56006.93
2019-04-11T12:31:55.733Z,56047.03
2019-04-11T12:34:36.682Z,56026.47
2019-04-11T12:37:12.486Z,56040.86
2019-04-11T12:40:01.007Z,56014.13
2019-04-11T12:42:34.387Z,56034.70
2019-04-11T12:45:22.812Z,56030.58
2019-04-11T12:47:58.792Z,56028.52
2019-04-11T12:50:46.743Z,56030.58
2019-04-11T12:53:27.143Z,56061.43
2019-04-11T12:56:07.086Z,56010.02
2019-04-11T12:59:01.666Z,56050.12
2019-04-11T13:01:51.843Z,56034.70
2019-04-11T13:04:30.068Z,56050.12
2019-04-11T13:07:26.039Z,56005.90
2019-04-11T13:10:02.842Z,56019.27
2019-04-11T13:12:42.073Z,56061.43
2019-04-11T13:15:46.916Z,56018.24
2019-04-11T13:18:35.904Z,56029.55
2019-04-11T13:21:22.176Z,56032.64
2019-04-11T13:24:11.619Z,56007.96
2019-04-11T13:26:59.694Z,56010.02
2019-04-11T13:29:58.180Z,56048.06
2019-04-11T13:32:33.662Z,56004.87
2019-04-11T13:35:18.074Z,56021.33
2019-04-11T13:38:22.907Z,56002.82
2019-04-11T13:41:21.324Z,56016.19
2019-04-11T13:43:54.206Z,56017.21
2019-04-11T13:46:46.514Z,56030.58
2019-04-11T13:49:45.325Z,56033.67
2019-04-11T13:52:34.673Z,56027.50
2019-04-11T13:55:21.641Z,56020.30
2019-04-11T13:58:10.964Z,56063.48
2019-04-11T14:00:51.822Z,56002.82
2019-04-11T14:03:43.862Z,55993.57
2019-04-11T14:06:40.520Z,56014.13
2019-04-11T14:09:30.448Z,56012.07
2019-04-11T14:11:59.605Z,56054.23
2019-04-11T14:14:35.732Z,56030.58
2019-04-11T14:17:17.803Z,56039.84
2019-04-11T14:20:05.684Z,56026.47
2019-04-11T14:23:14.871Z,56014.13
2019-04-11T14:26:11.357Z,56016.19
2019-04-11T14:28:44.390Z,56017.21
2019-04-11T14:31:38.847Z,56020.30
2019-04-11T14:34:29.373Z,56017.21
2019-04-11T14:37:13.245Z,56016.19
2019-04-11T14:39:46.258Z,56022.36
2019-04-11T14:42:31.430Z,56029.55
2019-04-11T14:45:05.665Z,56028.52
2019-04-11T14:47:42.134Z,56024.41
2019-04-11T14:50:12.358Z,56024.41
2019-04-11T14:52:59.842Z,55987.40
2019-04-11T14:55:30.395Z,56012.07
2019-04-11T14:58:19.363Z,56036.75
2019-04-11T15:00:53.765Z,56004.87
2019-04-11T15:03:30.308Z,56017.21
2019-04-11T15:06:05.520Z,56020.30
2019-04-11T15:08:47.682Z,56029.55
2019-04-11T15:11:49.768Z,56023.38
2019-04-11T15:14:37.546Z,56037.78
2019-04-11T15:17:17.243Z,56041.89
2019-04-11T15:19:51.894Z,56018.24
2019-04-11T15:22:40.660Z,56052.18
2019-04-11T15:25:29.992Z,56062.46
2019-04-11T15:28:23.391Z,55993.57
2019-04-11T15:30:55.986Z,56002.82
2019-04-11T15:33:43.915Z,55991.51
2019-04-11T15:36:15.549Z,56025.44
2019-04-11T15:39:03.640Z,56026.47
2019-04-11T15:41:33.667Z,56032.64
2019-04-11T15:44:25.859Z,56015.16
2019-04-11T15:47:00.626Z,56026.47
2019-04-11T15:49:48.696Z,56012.07
2019-04-11T15:52:21.516Z,56015.16
2019-04-11T15:55:11.871Z,56007.96
2019-04-11T15:57:45.452Z,56032.64
2019-04-11T16:00:45.221Z,56047.03
2019-04-11T16:03:18.266Z,56018.24
2019-04-11T16:06:10.439Z,56035.72
2019-04-11T16:08:43.749Z,56032.64
2019-04-11T16:11:20.728Z,56026.47
2019-04-11T16:14:03.229Z,56026.47
2019-04-11T16:16:58.697Z,56012.07
2019-04-11T16:19:40.580Z,56012.07
2019-04-11T16:22:43.246Z,56017.21
2019-04-11T16:25:15.502Z,56038.81
2019-04-11T16:28:08.147Z,56013.10
2019-04-11T16:30:59.293Z,56018.24
2019-04-11T16:33:47.455Z,56063.48
2019-04-11T16:36:20.752Z,56037.78
2019-04-11T16:38:58.763Z,56030.58
2019-04-11T16:41:47.150Z,56007.96
2019-04-11T16:44:25.026Z,56043.95
2019-04-11T16:47:13.332Z,56007.96
2019-04-11T16:49:43.252Z,56019.27
2019-04-11T16:52:13.569Z,56017.21
2019-04-11T16:54:43.487Z,56067.60
2019-04-11T16:57:14.216Z,56053.20
2019-04-11T16:59:44.909Z,56014.13
2019-04-11T17:02:14.808Z,56036.75
2019-04-11T17:04:45.114Z,56027.50
2019-04-11T17:07:32.947Z,56035.72
2019-04-11T17:10:04.246Z,55999.73
2019-04-11T17:12:35.116Z,56071.71
2019-04-11T17:15:06.343Z,56023.38
2019-04-11T17:17:36.810Z,56008.99
2019-04-11T17:20:07.872Z,56042.92
2019-04-11T17:22:38.282Z,56011.05
2019-04-11T17:25:09.348Z,56041.89
2019-04-11T17:27:40.022Z,56012.07
2019-04-11T17:30:10.755Z,56049.09
2019-04-11T17:32:41.579Z,56027.50
2019-04-11T17:35:15.393Z,56030.58
2019-04-11T17:37:45.830Z,56018.24
2019-04-11T17:40:16.463Z,56023.38
2019-04-11T17:42:47.121Z,56023.38
2019-04-11T17:45:17.458Z,56016.19
2019-04-11T17:47:48.178Z,56053.20
2019-04-11T17:50:18.700Z,56024.41
2019-04-11T17:52:49.525Z,56027.50
2019-04-11T17:55:23.870Z,56026.47
2019-04-11T17:57:51.906Z,56014.13
2019-04-11T18:00:30.085Z,56019.27
2019-04-11T18:03:00.761Z,56043.95
2019-04-11T18:05:31.722Z,56028.52
2019-04-11T18:08:01.742Z,56013.10
2019-04-11T18:10:32.464Z,56005.90
2019-04-11T18:13:02.662Z,56019.27
2019-04-11T18:15:36.612Z,56012.07
2019-04-11T18:18:06.969Z,56005.90
2019-04-11T18:20:37.598Z,56022.36
2019-04-11T18:23:08.286Z,56018.24
2019-04-11T18:25:39.240Z,56020.30
2019-04-11T18:28:10.151Z,56044.98
2019-04-11T18:30:41.896Z,56024.41
2019-04-11T18:33:12.262Z,55999.73
2019-04-11T18:35:42.790Z,56042.92
2019-04-11T18:38:12.812Z,56012.07
2019-04-11T18:40:43.403Z,56026.47
2019-04-11T18:43:16.047Z,56038.81
2019-04-11T18:45:45.333Z,55999.73
2019-04-11T18:48:16.279Z,56034.70
2019-04-11T18:50:46.573Z,56029.55
2019-04-11T18:53:19.031Z,56035.72
2019-04-11T18:55:48.686Z,56010.02
2019-04-11T18:58:18.637Z,56003.85
2019-04-11T19:00:50.406Z,56017.21
2019-04-11T19:03:21.160Z,56016.19
2019-04-11T19:05:51.583Z,55999.73
2019-04-11T19:08:22.566Z,55983.28
2019-04-11T19:10:52.790Z,56006.93
2019-04-11T19:13:23.334Z,56002.82
2019-04-11T19:15:53.904Z,56018.24
2019-04-11T19:18:24.639Z,56040.86
2019-04-11T19:20:54.537Z,56010.02
2019-04-11T19:23:24.755Z,55995.62
2019-04-11T19:25:55.187Z,55982.25
2019-04-11T19:28:26.030Z,56025.44
2019-04-11T19:30:56.978Z,56037.78
2019-04-11T19:33:27.494Z,56004.87
2019-04-11T19:35:57.712Z,56022.36
2019-04-11T19:38:31.225Z,56020.30
2019-04-11T19:41:01.752Z,55989.45
2019-04-11T19:43:32.377Z,56006.93
2019-04-11T19:46:02.314Z,56012.07
2019-04-11T19:48:33.079Z,55993.57
2019-04-11T19:51:03.712Z,56017.21
2019-04-11T19:53:35.276Z,55995.62
2019-04-11T19:56:11.722Z,55957.58
2019-04-11T19:58:41.995Z,56008.99
2019-04-11T20:01:12.346Z,55976.09
2019-04-11T20:03:42.790Z,56008.99
2019-04-11T20:06:13.463Z,55995.62
2019-04-11T20:08:43.530Z,55993.57
2019-04-11T20:11:13.501Z,55995.62
2019-04-11T20:13:44.112Z,56005.90
2019-04-11T20:16:14.356Z,55992.54
2019-04-11T20:18:50.813Z,55976.09
2019-04-11T20:21:17.034Z,55997.68
2019-04-11T20:23:48.061Z,56025.44
2019-04-11T20:26:20.918Z,56002.82
2019-04-11T20:28:51.696Z,56022.36
2019-04-11T20:31:22.242Z,56029.55
2019-04-11T20:33:52.454Z,56002.82
2019-04-11T20:36:32.923Z,55985.34
2019-04-11T20:38:55.391Z,56014.13
2019-04-11T20:41:26.067Z,56010.02
2019-04-11T20:43:57.135Z,56002.82
2019-04-11T20:46:29.161Z,55990.48
2019-04-11T20:48:59.935Z,55981.23
2019-04-11T20:51:30.188Z,56019.27
2019-04-11T20:54:00.998Z,56007.96
2019-04-11T20:56:30.931Z,55996.65
2019-04-11T20:59:01.480Z,55989.45
2019-04-11T21:01:31.362Z,56022.36
2019-04-11T21:04:04.472Z,56010.02
2019-04-11T21:06:33.481Z,56005.90
2019-04-11T21:09:05.223Z,56006.93
2019-04-11T21:11:37.210Z,55988.43
2019-04-11T21:14:07.308Z,55988.43
2019-04-11T21:16:37.623Z,55999.73
2019-04-11T21:19:07.632Z,55988.43
2019-04-11T21:21:37.839Z,55996.65
2019-04-11T21:24:08.501Z,55966.83
2019-04-11T21:26:39.951Z,55976.09
2019-04-11T21:29:10.466Z,56010.02
2019-04-11T21:31:41.013Z,55992.54
2019-04-11T21:34:11.566Z,55997.68
2019-04-11T21:36:41.834Z,55991.51
2019-04-11T21:39:12.041Z,56016.19
2019-04-11T21:41:42.201Z,56003.85
2019-04-11T21:44:12.139Z,55970.95
2019-04-11T21:46:42.626Z,55998.71
2019-04-11T21:49:13.069Z,55989.45
2019-04-11T21:51:43.002Z,55978.14
2019-04-11T21:54:14.946Z,55993.57
2019-04-11T21:56:49.278Z,56001.79
2019-04-11T21:59:20.330Z,55997.68
2019-04-11T22:01:53.810Z,55996.65
2019-04-11T22:04:26.894Z,55983.28
2019-04-11T22:06:55.184Z,56011.05
2019-04-11T22:09:25.884Z,55983.28
2019-04-11T22:11:56.430Z,55992.54
2019-04-11T22:14:26.664Z,56030.58
2019-04-11T22:16:56.556Z,55982.25
2019-04-11T22:19:26.576Z,55983.28
2019-04-11T22:21:56.814Z,55955.52
2019-04-11T22:24:27.635Z,55961.69
2019-04-11T22:26:57.872Z,55978.14
2019-04-11T22:29:28.810Z,55971.97
2019-04-11T22:31:59.705Z,56022.36
2019-04-11T22:34:41.989Z,55998.71
2019-04-11T22:37:11.979Z,55986.37
2019-04-11T22:39:42.193Z,55988.43
2019-04-11T22:42:12.566Z,55991.51
2019-04-11T22:44:43.651Z,55969.92
2019-04-11T22:47:13.868Z,56003.85
2019-04-11T22:49:44.143Z,55994.59
2019-04-11T22:52:15.344Z,55977.11
2019-04-11T22:54:46.179Z,55981.23
2019-04-11T22:57:16.672Z,55981.23
2019-04-11T22:59:46.911Z,56010.02
2019-04-11T23:02:24.718Z,55991.51
2019-04-11T23:04:54.928Z,55991.51
2019-04-11T23:07:25.469Z,55984.31
2019-04-11T23:09:56.007Z,55933.93
2019-04-11T23:12:26.545Z,55999.73
2019-04-11T23:14:56.755Z,55935.98
2019-04-11T23:17:26.654Z,55980.20
2019-04-11T23:19:57.196Z,55980.20
2019-04-11T23:22:27.503Z,55998.71
2019-04-11T23:24:57.898Z,55979.17
2019-04-11T23:27:28.084Z,55948.32
2019-04-11T23:29:58.924Z,55988.43
2019-04-11T23:32:29.245Z,55978.14
2019-04-11T23:34:59.209Z,55982.25
2019-04-11T23:37:31.447Z,55977.11
2019-04-11T23:40:01.751Z,56005.90
2019-04-11T23:42:32.522Z,55975.06
2019-04-11T23:45:03.411Z,56000.76
2019-04-11T23:47:33.647Z,56030.58
2019-04-11T23:50:03.937Z,56013.10
2019-04-11T23:52:33.842Z,55984.31
2019-04-11T23:55:04.125Z,55974.03
2019-04-11T23:57:34.616Z,55990.48
